Time;durP1;ratioP1;P1;durP2;ratioP2;P2;SDS_P1;SDS_P2;PMS_P1;PMS_P2;Temp;Humidity;BMP_temperature;BMP_pressure;BME280_temperature;BME280_humidity;BME280_pressure;Samples;Min_cycle;Max_cycle;Signal;HPM_P1;HPM_P2
2023/08/29 00:01:16;;;;;;;9.23;4.78;;;;;;;22.66;68.24;99727.56;5031520;28;20504;-76
2023/08/29 00:03:42;;;;;;;6.65;5.10;;;;;;;22.45;68.42;99696.50;5031692;28;20046;-76
2023/08/29 00:06:07;;;;;;;7.75;4.78;;;;;;;22.55;68.00;99704.13;5031605;28;20021;-75
2023/08/29 00:08:33;;;;;;;15.57;4.97;;;;;;;22.55;68.10;99712.03;5031021;28;20108;-76
2023/08/29 00:10:59;;;;;;;9.07;5.43;;;;;;;22.42;68.35;99722.84;5031593;28;20036;-77
2023/08/29 00:13:26;;;;;;;9.15;5.30;;;;;;;22.39;70.19;99698.38;5031130;28;20052;-76
2023/08/29 00:15:52;;;;;;;8.32;4.72;;;;;;;22.54;70.33;99698.03;5031191;28;20108;-75
2023/08/29 00:18:20;;;;;;;10.15;4.97;;;;;;;22.58;70.23;99694.41;5031396;28;20034;-76
2023/08/29 00:20:46;;;;;;;8.47;5.13;;;;;;;22.73;69.39;99694.91;5031328;28;20041;-75
2023/08/29 00:23:11;;;;;;;7.45;4.93;;;;;;;22.51;69.03;99637.59;5014586;28;20037;-75
2023/08/29 00:25:37;;;;;;;7.97;4.90;;;;;;;22.87;68.56;99674.38;5063467;28;20045;-75
2023/08/29 00:28:03;;;;;;;7.05;4.80;;;;;;;23.06;67.93;99679.97;5073472;28;20032;-76
2023/08/29 00:30:36;;;;;;;8.27;4.85;;;;;;;22.84;67.75;99629.72;5073734;28;20136;-76
2023/08/29 00:33:02;;;;;;;15.88;5.57;;;;;;;23.30;67.87;99690.78;5073626;28;20036;-75
2023/08/29 00:35:27;;;;;;;11.50;5.22;;;;;;;23.39;68.17;99700.19;5073431;28;20036;-75
2023/08/29 00:37:52;;;;;;;14.38;6.03;;;;;;;23.17;69.31;99694.69;5073681;28;20037;-76
2023/08/29 00:40:18;;;;;;;14.63;5.45;;;;;;;23.23;70.25;99699.78;5073213;28;20032;-75
2023/08/29 00:42:43;;;;;;;16.27;6.10;;;;;;;23.23;70.41;99698.00;5073280;28;20024;-75
2023/08/29 00:45:09;;;;;;;13.57;5.65;;;;;;;23.07;71.26;99709.81;5073077;28;20024;-76
2023/08/29 00:47:36;;;;;;;10.48;5.38;;;;;;;22.28;73.30;99640.75;5073188;28;20032;-76
2023/08/29 00:50:01;;;;;;;11.40;4.90;;;;;;;22.50;74.53;99684.97;5071689;28;20555;-75
2023/08/29 00:52:27;;;;;;;10.02;5.65;;;;;;;22.58;74.96;99714.56;5072348;28;20039;-76
2023/08/29 00:54:52;;;;;;;11.52;5.10;;;;;;;22.66;75.37;99709.13;5076755;28;20024;-75
2023/08/29 00:57:18;;;;;;;13.60;5.30;;;;;;;22.64;76.16;99719.69;5093032;28;20032;-76
2023/08/29 00:59:44;;;;;;;7.55;5.00;;;;;;;22.21;71.55;99666.34;5093097;28;20471;-75
2023/08/29 01:02:10;;;;;;;8.98;4.55;;;;;;;22.14;71.06;99726.09;5093236;28;20047;-79
2023/08/29 01:04:35;;;;;;;8.23;4.82;;;;;;;22.00;71.31;99712.38;5093140;28;20048;-74
2023/08/29 01:07:01;;;;;;;10.23;5.55;;;;;;;21.76;70.12;99696.25;5092903;28;20058;-75
2023/08/29 01:09:26;;;;;;;9.43;5.28;;;;;;;21.61;70.80;99692.19;5074631;28;20515;-76
2023/08/29 01:12:02;;;;;;;11.07;4.93;;;;;;;21.55;71.20;99694.91;5092554;28;20024;-76
2023/08/29 01:14:40;;;;;;;9.88;4.88;;;;;;;21.29;70.61;99642.94;5093198;28;20020;-77
2023/08/29 01:17:22;;;;;;;8.38;4.90;;;;;;;21.59;70.80;99704.50;5092980;28;20110;-80
2023/08/29 01:19:51;;;;;;;10.32;5.47;;;;;;;21.72;70.58;99691.09;5092751;28;20410;-75
2023/08/29 01:22:29;;;;;;;8.98;5.50;;;;;;;21.86;69.73;99696.03;5092649;28;20052;-75
2023/08/29 01:25:34;;;;;;;9.15;5.63;;;;;;;21.81;69.92;99693.53;5092633;28;20031;-76
2023/08/29 01:28:01;;;;;;;8.13;5.15;;;;;;;21.64;70.62;99675.50;5029729;28;20204;-75
2023/08/29 01:30:27;;;;;;;12.40;5.10;;;;;;;21.56;71.85;99682.66;5029890;28;20037;-76
2023/08/29 01:32:54;;;;;;;9.95;5.32;;;;;;;21.33;71.75;99626.22;5029785;28;20057;-75
2023/08/29 01:35:22;;;;;;;8.18;5.60;;;;;;;21.71;72.11;99685.00;5030062;28;20029;-78
2023/08/29 01:37:47;;;;;;;10.70;5.30;;;;;;;21.75;71.92;99663.00;5029910;28;20037;-75
2023/08/29 01:40:13;;;;;;;9.80;5.40;;;;;;;21.88;71.23;99662.72;5029967;28;20040;-75
2023/08/29 01:42:38;;;;;;;9.93;5.18;;;;;;;21.85;72.07;99674.19;5029620;28;20038;-76
2023/08/29 01:45:07;;;;;;;10.38;5.18;;;;;;;21.81;72.93;99670.75;5029631;28;20034;-80
2023/08/29 01:47:32;;;;;;;13.55;6.10;;;;;;;21.74;73.09;99650.75;5029960;28;20037;-76
2023/08/29 01:50:03;;;;;;;7.93;5.32;;;;;;;21.54;73.09;99608.28;5029646;28;20528;-76
2023/08/29 01:52:28;;;;;;;7.60;5.88;;;;;;;21.86;72.99;99656.63;5029641;28;20060;-75
2023/08/29 01:54:54;;;;;;;9.27;5.82;;;;;;;21.72;73.61;99647.31;5029658;28;20081;-76
2023/08/29 01:57:20;;;;;;;9.77;6.18;;;;;;;21.60;74.69;99650.22;5029427;28;20025;-74
2023/08/29 01:59:46;;;;;;;9.05;5.50;;;;;;;21.48;75.17;99644.31;5028955;28;20127;-75
2023/08/29 02:02:13;;;;;;;10.45;5.85;;;;;;;21.52;74.96;99645.09;5029728;28;20389;-80
2023/08/29 02:04:39;;;;;;;12.98;6.15;;;;;;;21.47;75.29;99647.81;5057794;28;20067;-78
2023/08/29 02:07:04;;;;;;;11.30;6.57;;;;;;;21.39;76.04;99656.75;5091824;28;20483;-78
2023/08/29 02:09:31;;;;;;;11.02;6.15;;;;;;;21.34;75.66;99646.34;5091697;28;20031;-76
2023/08/29 02:11:56;;;;;;;10.35;6.57;;;;;;;21.22;75.33;99644.84;5091786;28;20031;-76
2023/08/29 02:14:22;;;;;;;15.75;6.25;;;;;;;21.03;76.23;99646.94;5091687;28;20028;-76
2023/08/29 02:16:47;;;;;;;9.48;6.45;;;;;;;20.67;76.84;99594.25;5091546;28;20031;-76
2023/08/29 02:19:13;;;;;;;9.93;6.93;;;;;;;20.95;76.92;99633.97;5091677;28;20101;-77
2023/08/29 02:21:38;;;;;;;10.25;6.68;;;;;;;20.48;76.55;99550.00;5091368;28;20160;-77
2023/08/29 02:24:04;;;;;;;9.13;6.32;;;;;;;21.12;76.59;99640.66;5091763;28;20028;-78
2023/08/29 02:26:29;;;;;;;9.23;6.50;;;;;;;21.36;75.26;99655.06;5092080;28;20102;-76
2023/08/29 02:28:55;;;;;;;9.38;6.05;;;;;;;21.34;75.29;99633.22;5091143;28;20487;-76
2023/08/29 02:31:20;;;;;;;10.20;6.63;;;;;;;21.43;74.53;99622.53;5072903;28;20060;-76
2023/08/29 02:33:46;;;;;;;9.25;6.07;;;;;;;21.63;74.58;99645.75;5091540;28;20020;-76
2023/08/29 02:36:12;;;;;;;11.50;6.22;;;;;;;21.63;74.32;99635.25;5091588;28;20027;-76
2023/08/29 02:38:38;;;;;;;14.68;6.63;;;;;;;21.52;75.60;99638.97;5091463;28;20136;-77
2023/08/29 02:41:05;;;;;;;19.92;6.97;;;;;;;21.35;78.74;99627.06;5072998;28;20111;-77
2023/08/29 02:43:30;;;;;;;16.65;7.88;;;;;;;21.05;77.96;99573.44;5090882;28;20563;-77
2023/08/29 02:45:57;;;;;;;16.00;6.80;;;;;;;21.28;77.79;99646.47;5091268;28;20116;-77
2023/08/29 02:48:23;;;;;;;12.30;6.47;;;;;;;20.76;76.72;99552.16;5090971;28;20089;-76
2023/08/29 02:50:49;;;;;;;13.18;6.85;;;;;;;21.02;76.26;99608.47;5072801;28;20032;-76
2023/08/29 02:53:19;;;;;;;14.38;6.75;;;;;;;21.13;76.44;99630.16;5072935;28;20031;-76
2023/08/29 02:55:44;;;;;;;11.60;7.35;;;;;;;21.00;76.65;99623.41;5090700;28;20033;-77
2023/08/29 02:58:10;;;;;;;12.70;6.63;;;;;;;20.41;77.40;99553.66;5091028;28;20038;-77
2023/08/29 03:00:35;;;;;;;11.95;7.13;;;;;;;20.71;77.71;99632.69;5091142;28;20024;-76
2023/08/29 03:03:03;;;;;;;14.60;7.03;;;;;;;20.52;77.92;99635.59;5091094;28;20104;-75
2023/08/29 03:05:28;;;;;;;15.85;7.55;;;;;;;20.27;77.45;99618.56;5090770;28;20535;-75
2023/08/29 03:07:55;;;;;;;11.52;6.72;;;;;;;20.39;77.00;99638.44;5090667;28;20066;-78
2023/08/29 03:10:20;;;;;;;13.07;7.18;;;;;;;20.39;76.84;99641.06;5090367;28;20050;-77
2023/08/29 03:12:46;;;;;;;12.00;7.22;;;;;;;20.12;77.21;99601.31;5072225;28;20031;-76
2023/08/29 03:15:11;;;;;;;10.63;7.57;;;;;;;19.87;76.86;99565.88;5072708;28;20028;-81
2023/08/29 03:17:37;;;;;;;15.88;7.20;;;;;;;20.17;77.61;99637.03;5090676;28;20024;-77
2023/08/29 03:20:05;;;;;;;13.55;7.15;;;;;;;19.90;78.58;99599.06;5090707;28;20028;-78
2023/08/29 03:22:30;;;;;;;13.55;7.78;;;;;;;19.92;79.71;99638.31;5090470;28;20085;-75
2023/08/29 03:24:55;;;;;;;19.60;8.23;;;;;;;19.70;80.76;99633.34;5090829;28;20024;-75
2023/08/29 03:27:21;;;;;;;16.63;7.78;;;;;;;19.87;80.16;99649.72;5090396;28;20426;-77
2023/08/29 03:29:46;;;;;;;13.52;8.38;;;;;;;19.55;80.00;99582.94;5090570;28;20036;-75
2023/08/29 03:32:12;;;;;;;12.95;7.68;;;;;;;19.70;81.24;99612.38;5090332;28;20059;-76
2023/08/29 03:34:38;;;;;;;17.95;8.43;;;;;;;19.72;80.68;99636.81;5090482;28;20027;-76
2023/08/29 03:37:07;;;;;;;18.95;9.15;;;;;;;19.15;81.13;99559.06;5090321;28;20773;-77
2023/08/29 03:39:32;;;;;;;32.55;19.92;;;;;;;19.63;80.37;99640.44;5090280;28;20048;-76
2023/08/29 03:41:57;;;;;;;23.67;12.10;;;;;;;19.57;80.31;99630.03;5090263;28;20075;-78
2023/08/29 03:44:23;;;;;;;22.65;10.70;;;;;;;19.77;79.73;99657.72;5090644;28;20020;-78
2023/08/29 03:46:49;;;;;;;140.68;77.10;;;;;;;19.82;80.30;99655.88;5090568;28;20633;-75
2023/08/29 03:49:14;;;;;;;532.83;335.80;;;;;;;19.81;80.01;99649.78;5090388;28;20489;-76
2023/08/29 03:51:40;;;;;;;225.73;123.18;;;;;;;19.85;79.71;99617.47;5090238;28;20110;-76
2023/08/29 03:54:05;;;;;;;55.38;32.50;;;;;;;20.11;79.91;99628.41;5090105;28;20028;-78
2023/08/29 03:56:33;;;;;;;22.95;13.23;;;;;;;20.22;80.98;99647.44;5090058;28;20111;-76
2023/08/29 03:59:01;;;;;;;122.10;52.83;;;;;;;20.01;82.30;99643.41;5072256;28;20032;-76
2023/08/29 04:01:27;;;;;;;213.18;88.97;;;;;;;19.54;82.53;99577.72;5090285;28;20032;-76
2023/08/29 04:03:52;;;;;;;165.50;70.03;;;;;;;19.92;82.21;99635.69;5090094;28;20020;-75
2023/08/29 04:06:21;;;;;;;61.85;27.10;;;;;;;19.55;81.66;99564.63;5090217;28;20506;-75
2023/08/29 04:08:47;;;;;;;29.50;13.73;;;;;;;19.64;81.21;99628.19;5087901;28;20060;-78
2023/08/29 04:11:12;;;;;;;13.55;9.38;;;;;;;19.48;81.37;99630.16;5089901;28;20060;-78
2023/08/29 04:13:38;;;;;;;22.75;9.85;;;;;;;19.43;82.43;99631.97;5089875;28;20070;-78
2023/08/29 04:16:03;;;;;;;21.05;9.27;;;;;;;19.47;81.70;99637.16;5087736;28;20399;-75
2023/08/29 04:18:32;;;;;;;40.03;17.02;;;;;;;19.49;80.79;99629.25;5068266;28;20036;-76
2023/08/29 04:20:59;;;;;;;120.50;46.97;;;;;;;19.62;80.53;99632.59;5055418;28;20024;-76
2023/08/29 04:23:25;;;;;;;117.57;49.67;;;;;;;19.37;79.61;99575.34;5071551;28;20047;-76
2023/08/29 04:25:56;;;;;;;45.85;22.75;;;;;;;19.91;79.72;99647.91;5090503;28;20032;-75
2023/08/29 04:28:21;;;;;;;33.85;16.65;;;;;;;19.86;79.75;99623.53;5091574;28;20619;-76
2023/08/29 04:30:46;;;;;;;23.45;12.82;;;;;;;20.11;79.65;99637.16;5093595;28;20036;-75
2023/08/29 04:33:12;;;;;;;27.25;13.60;;;;;;;19.68;80.19;99570.53;5075528;28;20028;-75
2023/08/29 04:35:37;;;;;;;30.13;14.00;;;;;;;20.03;81.38;99631.16;5093505;28;20105;-75
2023/08/29 04:38:03;;;;;;;192.50;97.72;;;;;;;19.87;81.32;99599.94;5075342;28;20118;-76
2023/08/29 04:40:29;;;;;;;235.43;125.47;;;;;;;19.96;82.31;99626.91;5093744;28;20020;-76
2023/08/29 04:42:55;;;;;;;100.65;47.85;;;;;;;20.13;81.95;99640.59;5093588;28;20077;-77
2023/08/29 04:45:23;;;;;;;65.43;30.40;;;;;;;20.18;80.51;99623.03;5093524;28;20016;-75
2023/08/29 04:47:48;;;;;;;144.77;62.75;;;;;;;20.17;80.23;99610.81;5094031;28;20028;-75
2023/08/29 04:50:15;;;;;;;28.50;13.15;;;;;;;20.40;79.49;99625.34;5095069;28;20392;-75
2023/08/29 04:52:41;;;;;;;24.58;9.57;;;;;;;20.60;78.23;99619.72;5095095;28;20024;-74
2023/08/29 04:55:06;;;;;;;18.55;9.57;;;;;;;20.75;77.19;99613.38;5094850;28;20556;-76
2023/08/29 04:57:35;;;;;;;23.40;7.65;;;;;;;20.83;75.82;99608.81;5093561;28;20036;-76
2023/08/29 05:00:00;;;;;;;17.80;5.80;;;;;;;20.68;75.52;99557.50;5075674;28;20028;-76
2023/08/29 05:02:26;;;;;;;17.45;6.85;;;;;;;21.26;75.82;99622.00;5092764;28;20460;-78
2023/08/29 05:04:52;;;;;;;14.18;5.70;;;;;;;21.32;74.93;99614.00;5075674;28;20452;-77
2023/08/29 05:07:18;;;;;;;18.95;5.97;;;;;;;21.36;75.32;99623.56;5092958;28;20032;-76
2023/08/29 05:09:46;;;;;;;17.02;5.75;;;;;;;21.45;75.69;99625.97;5075094;28;20173;-77
2023/08/29 05:12:12;;;;;;;18.30;5.15;;;;;;;21.48;74.70;99610.16;5093829;28;20076;-77
2023/08/29 05:14:38;;;;;;;10.15;4.60;;;;;;;21.59;73.52;99607.31;5091728;28;20040;-79
2023/08/29 05:17:04;;;;;;;9.10;4.90;;;;;;;21.70;73.24;99596.56;5092338;28;20105;-77
2023/08/29 05:19:30;;;;;;;9.02;5.00;;;;;;;21.81;72.63;99605.06;5090286;28;20567;-78
2023/08/29 05:21:56;;;;;;;9.18;3.88;;;;;;;21.89;70.68;99611.91;5091358;28;20123;-76
2023/08/29 05:24:22;;;;;;;11.68;4.57;;;;;;;22.07;70.90;99619.34;5073873;28;20046;-79
2023/08/29 05:26:48;;;;;;;12.02;5.43;;;;;;;22.13;71.11;99598.19;5092007;28;20432;-78
2023/08/29 05:29:14;;;;;;;14.40;5.13;;;;;;;22.15;70.57;99595.50;5092407;28;20028;-77
2023/08/29 05:31:39;;;;;;;13.95;5.28;;;;;;;22.08;72.25;99593.94;5093193;28;20071;-75
2023/08/29 05:34:05;;;;;;;16.10;5.28;;;;;;;22.17;71.44;99619.13;5092601;28;20059;-78
2023/08/29 05:36:31;;;;;;;14.73;4.95;;;;;;;22.19;69.45;99597.16;5074303;28;20042;-77
2023/08/29 05:38:56;;;;;;;21.52;7.07;;;;;;;22.30;72.42;99616.16;5092088;28;20028;-80
2023/08/29 05:41:23;;;;;;;18.00;6.10;;;;;;;22.28;72.12;99601.31;5092297;28;20093;-76
2023/08/29 05:43:49;;;;;;;14.15;5.43;;;;;;;22.36;70.82;99614.28;5073959;28;20127;-79
2023/08/29 05:46:15;;;;;;;19.48;6.50;;;;;;;22.29;70.84;99596.03;5092193;28;20109;-80
2023/08/29 05:48:41;;;;;;;17.48;6.60;;;;;;;22.41;70.46;99615.91;5074103;28;20067;-79
2023/08/29 05:51:09;;;;;;;23.58;11.05;;;;;;;22.50;71.61;99616.59;5094724;28;20092;-79
2023/08/29 05:53:36;;;;;;;16.67;5.80;;;;;;;22.40;70.12;99601.03;5092494;28;20081;-79
2023/08/29 05:56:03;;;;;;;11.70;6.35;;;;;;;22.48;70.57;99602.59;5092261;28;20073;-79
2023/08/29 05:58:29;;;;;;;25.27;6.25;;;;;;;22.63;69.48;99604.84;5092204;28;20471;-78
2023/08/29 06:00:55;;;;;;;23.73;6.38;;;;;;;22.87;68.06;99611.19;5092384;28;20020;-78
2023/08/29 06:03:20;;;;;;;19.10;6.15;;;;;;;22.89;67.58;99605.88;5091799;28;20028;-78
2023/08/29 06:05:49;;;;;;;16.88;5.30;;;;;;;23.00;67.42;99614.34;5092395;28;20110;-78
2023/08/29 06:08:15;;;;;;;17.88;6.22;;;;;;;23.03;69.51;99622.16;5092014;28;20103;-79
2023/08/29 06:10:41;;;;;;;22.85;8.05;;;;;;;23.04;72.00;99623.91;5091715;28;20032;-82
2023/08/29 06:13:06;;;;;;;18.90;8.52;;;;;;;22.94;71.50;99632.94;5068925;28;20500;-77
2023/08/29 06:15:32;;;;;;;16.88;8.68;;;;;;;22.67;71.53;99572.28;5069001;28;20488;-78
2023/08/29 06:17:57;;;;;;;19.85;7.75;;;;;;;22.33;69.78;99502.16;5068583;28;20044;-78
2023/08/29 06:20:23;;;;;;;14.43;7.22;;;;;;;22.78;69.62;99569.38;5069315;28;20040;-79
2023/08/29 06:22:48;;;;;;;15.82;6.40;;;;;;;23.17;68.41;99611.28;5052848;28;20099;-76
2023/08/29 06:25:15;;;;;;;13.70;6.60;;;;;;;23.37;71.43;99620.38;5068805;28;20535;-78
2023/08/29 06:27:40;;;;;;;21.10;7.03;;;;;;;23.40;68.96;99605.34;5060873;28;20052;-76
2023/08/29 06:30:07;;;;;;;15.73;6.40;;;;;;;23.62;68.25;99612.59;5065282;28;20134;-77
2023/08/29 06:32:34;;;;;;;18.00;6.78;;;;;;;23.46;68.48;99559.50;5067232;28;20074;-78
2023/08/29 06:35:00;;;;;;;11.80;5.95;;;;;;;23.93;65.91;99635.38;5068726;28;20114;-80
2023/08/29 06:37:27;;;;;;;17.17;6.43;;;;;;;23.99;64.28;99618.50;5068636;28;20523;-76
2023/08/29 06:39:52;;;;;;;11.50;5.82;;;;;;;24.10;63.53;99603.22;5068487;28;20043;-77
2023/08/29 06:42:18;;;;;;;16.10;6.35;;;;;;;24.46;63.73;99616.06;5067138;28;20025;-77
2023/08/29 06:44:43;;;;;;;18.30;5.65;;;;;;;24.55;62.15;99613.09;5083934;28;20060;-80
2023/08/29 06:47:09;;;;;;;17.45;6.20;;;;;;;24.61;62.17;99611.16;5090323;28;20077;-76
2023/08/29 06:49:37;;;;;;;26.17;7.95;;;;;;;24.63;61.64;99593.50;5090193;28;20913;-78
2023/08/29 06:52:03;;;;;;;25.83;7.63;;;;;;;24.34;59.66;99527.66;5090088;28;20533;-74
2023/08/29 06:54:29;;;;;;;26.48;7.78;;;;;;;24.58;57.51;99548.81;5091222;28;20052;-76
2023/08/29 06:56:55;;;;;;;36.00;7.38;;;;;;;24.94;56.61;99590.66;5072304;28;20040;-81
2023/08/29 06:59:20;;;;;;;23.17;6.82;;;;;;;24.94;55.65;99580.09;5090723;28;20517;-81
2023/08/29 07:01:46;;;;;;;21.90;6.22;;;;;;;25.22;53.93;99588.78;5072556;28;20074;-79
2023/08/29 07:04:11;;;;;;;21.27;5.88;;;;;;;25.55;54.88;99599.84;5091094;28;20020;-80
2023/08/29 07:06:37;;;;;;;15.07;5.70;;;;;;;25.71;51.70;99604.53;5090851;28;20028;-81
2023/08/29 07:09:03;;;;;;;15.77;5.43;;;;;;;25.74;52.73;99592.06;5072874;28;20028;-79
2023/08/29 07:11:29;;;;;;;18.17;5.10;;;;;;;25.86;49.41;99596.00;5072457;28;20464;-79
2023/08/29 07:13:55;;;;;;;19.23;5.10;;;;;;;26.10;49.31;99603.88;5072519;28;20028;-82
2023/08/29 07:16:21;;;;;;;15.63;4.82;;;;;;;26.30;49.57;99589.81;5072555;28;20039;-80
2023/08/29 07:18:47;;;;;;;17.52;5.43;;;;;;;25.97;48.04;99510.91;5091086;28;20076;-80
2023/08/29 07:21:13;;;;;;;9.63;4.43;;;;;;;26.63;47.24;99598.09;5091419;28;20027;-80
2023/08/29 07:23:38;;;;;;;9.68;3.67;;;;;;;26.82;41.38;99589.38;5028052;28;20167;-80
2023/08/29 07:26:04;;;;;;;7.85;3.33;;;;;;;26.88;41.96;99586.44;5027650;28;20555;-81
2023/08/29 07:28:29;;;;;;;6.15;3.22;;;;;;;27.00;40.18;99592.97;5028224;28;20520;-80
2023/08/29 07:30:55;;;;;;;6.78;3.10;;;;;;;27.16;37.33;99590.47;5027563;28;20122;-78
2023/08/29 07:33:21;;;;;;;6.85;3.10;;;;;;;27.35;39.05;99584.34;5028516;28;20025;-80
2023/08/29 07:35:48;;;;;;;7.78;3.17;;;;;;;27.32;40.17;99590.63;5027978;28;20044;-80
2023/08/29 07:38:14;;;;;;;20.30;4.63;;;;;;;27.39;39.28;99577.94;5027983;28;20037;-81
2023/08/29 07:40:40;;;;;;;14.88;4.10;;;;;;;27.56;44.63;99593.94;5012344;28;20037;-79
2023/08/29 07:43:08;;;;;;;8.25;3.90;;;;;;;27.54;42.08;99574.63;5008088;28;20540;-78
2023/08/29 07:45:34;;;;;;;8.40;3.83;;;;;;;27.72;42.25;99593.22;4991666;28;20049;-79
2023/08/29 07:48:01;;;;;;;12.73;3.88;;;;;;;27.89;42.35;99589.75;5008081;28;20078;-79
2023/08/29 07:50:27;;;;;;;12.80;4.30;;;;;;;27.95;42.81;99567.34;5008192;28;20048;-80
2023/08/29 07:52:53;;;;;;;8.18;4.07;;;;;;;28.24;41.27;99579.19;5008514;28;20034;-80
2023/08/29 07:55:18;;;;;;;13.82;4.38;;;;;;;28.39;43.32;99583.72;5008095;28;20045;-81
2023/08/29 07:57:44;;;;;;;10.30;4.10;;;;;;;28.49;41.05;99573.47;5008249;28;20088;-80
2023/08/29 08:00:14;;;;;;;16.02;4.95;;;;;;;28.62;42.21;99575.50;5010442;28;20034;-79
2023/08/29 08:02:41;;;;;;;8.32;3.97;;;;;;;28.75;39.72;99565.97;5011547;28;20048;-79
2023/08/29 08:05:13;;;;;;;12.95;4.78;;;;;;;28.81;39.81;99547.06;5031879;28;20436;-78
2023/08/29 08:07:40;;;;;;;17.58;4.65;;;;;;;28.94;44.47;99557.88;5031479;28;20052;-81
2023/08/29 08:10:08;;;;;;;17.50;5.50;;;;;;;29.08;43.71;99558.94;5032015;28;20025;-79
2023/08/29 08:12:37;;;;;;;7.53;4.28;;;;;;;28.82;44.45;99502.75;5015951;28;20033;-78
2023/08/29 08:15:04;;;;;;;12.18;4.57;;;;;;;29.14;44.54;99534.69;4998892;28;20038;-82
2023/08/29 08:17:30;;;;;;;14.02;4.55;;;;;;;29.18;42.23;99546.84;5015011;28;20583;-78
2023/08/29 08:19:56;;;;;;;12.63;4.82;;;;;;;29.27;41.76;99542.81;5046957;28;20143;-79
2023/08/29 08:22:22;;;;;;;8.30;5.05;;;;;;;29.12;40.42;99481.59;5094143;28;20027;-79
2023/08/29 08:24:48;;;;;;;13.02;4.70;;;;;;;29.30;39.20;99481.53;5094047;28;20030;-81
2023/08/29 08:27:14;;;;;;;15.80;5.25;;;;;;;29.70;40.12;99524.47;5093991;28;20024;-81
2023/08/29 08:29:40;;;;;;;14.35;5.15;;;;;;;29.16;40.74;99421.16;5093769;28;20510;-82
2023/08/29 08:32:06;;;;;;;10.05;4.97;;;;;;;29.89;39.96;99520.72;5094094;28;20046;-81
2023/08/29 08:34:32;;;;;;;7.72;5.15;;;;;;;29.94;40.53;99510.69;5094249;28;20476;-80
2023/08/29 08:36:57;;;;;;;10.45;4.88;;;;;;;30.13;38.39;99502.47;5093578;28;20089;-81
2023/08/29 08:39:23;;;;;;;10.07;5.05;;;;;;;30.26;41.21;99511.44;5093594;28;20031;-86
2023/08/29 08:41:49;;;;;;;8.27;4.93;;;;;;;29.99;39.01;99440.25;5075416;28;20043;-81
2023/08/29 08:44:19;;;;;;;11.27;4.53;;;;;;;30.55;38.27;99508.81;5076223;28;20031;-80
2023/08/29 08:46:46;;;;;;;11.52;5.15;;;;;;;30.49;39.09;99495.88;5076342;28;20059;-82
2023/08/29 08:49:12;;;;;;;7.35;4.57;;;;;;;30.78;37.83;99498.53;5076128;28;20017;-81
2023/08/29 08:51:40;;;;;;;7.63;4.70;;;;;;;30.92;36.99;99498.53;5095612;28;20036;-81
2023/08/29 08:54:12;;;;;;;8.73;4.95;;;;;;;31.14;37.44;99484.72;5078637;28;20085;-82
2023/08/29 08:56:42;;;;;;;7.32;4.78;;;;;;;31.39;37.59;99498.25;5031817;28;20129;-83
2023/08/29 08:59:09;;;;;;;7.25;5.20;;;;;;;31.36;37.63;99493.97;5015349;28;20037;-85
2023/08/29 09:01:35;;;;;;;6.90;4.72;;;;;;;31.52;37.50;99492.97;5032304;28;20042;-85
2023/08/29 09:04:01;;;;;;;11.13;4.50;;;;;;;31.62;37.49;99486.06;5016974;28;20033;-86
2023/08/29 09:06:26;;;;;;;12.10;5.38;;;;;;;31.74;36.83;99479.06;5016155;28;20517;-87
2023/08/29 09:08:52;;;;;;;8.02;4.82;;;;;;;31.87;37.45;99479.94;5015845;28;20107;-83
2023/08/29 09:11:18;;;;;;;7.13;4.88;;;;;;;31.92;36.54;99471.63;5016781;28;20087;-88
2023/08/29 09:13:48;;;;;;;13.63;6.03;;;;;;;32.03;36.81;99465.56;5014669;28;20042;-78
2023/08/29 09:16:14;;;;;;;8.90;4.43;;;;;;;32.22;36.05;99475.84;5015284;28;20049;-87
2023/08/29 09:18:44;;;;;;;8.68;4.30;;;;;;;32.28;36.56;99470.09;5016207;28;20133;-83
2023/08/29 09:21:22;;;;;;;8.02;4.20;;;;;;;32.28;35.98;99458.53;5031887;28;20443;-82
2023/08/29 09:23:50;;;;;;;8.93;4.43;;;;;;;32.24;36.03;99457.91;5016256;28;20582;-86
2023/08/29 09:26:16;;;;;;;7.40;4.20;;;;;;;32.02;36.39;99419.31;4992108;28;20133;-86
2023/08/29 09:28:43;;;;;;;8.70;4.50;;;;;;;32.20;36.70;99449.25;5049237;28;20149;-87
2023/08/29 09:31:10;;;;;;;7.15;3.95;;;;;;;32.55;35.34;99459.28;5051471;28;20594;-79
2023/08/29 09:33:37;;;;;;;10.02;4.47;;;;;;;32.49;35.35;99424.97;5051946;28;20381;-88
2023/08/29 09:36:05;;;;;;;6.85;4.10;;;;;;;32.72;35.50;99457.19;5049347;28;20627;-87
2023/08/29 09:38:32;;;;;;;9.88;3.97;;;;;;;32.85;35.36;99444.69;5052529;28;20068;-80
2023/08/29 09:40:58;;;;;;;7.78;4.28;;;;;;;33.03;34.63;99445.16;5050345;28;20566;-84
2023/08/29 09:43:27;;;;;;;9.10;4.43;;;;;;;33.14;34.50;99459.59;5034907;28;20517;-79
2023/08/29 09:45:53;;;;;;;8.98;4.57;;;;;;;33.08;33.93;99419.91;5050096;28;20183;-80
2023/08/29 09:48:19;;;;;;;10.05;4.28;;;;;;;33.07;33.84;99413.69;5051244;28;20419;-84
2023/08/29 09:50:46;;;;;;;10.77;4.03;;;;;;;33.18;33.75;99423.59;5049050;28;20131;-84
2023/08/29 09:53:36;;;;;;;7.72;3.97;;;;;;;33.31;33.79;99434.25;5050196;28;20025;-85
2023/08/29 09:56:08;;;;;;;9.70;3.83;;;;;;;33.18;33.37;99445.00;4989549;28;20034;-84
2023/08/29 09:58:37;;;;;;;9.48;4.20;;;;;;;32.93;33.98;99409.38;5049254;28;20037;-83
2023/08/29 10:01:06;;;;;;;6.78;4.10;;;;;;;33.27;33.69;99427.41;5032432;28;20032;-83
2023/08/29 10:03:35;;;;;;;8.15;4.20;;;;;;;33.39;33.47;99422.03;5045326;28;20037;-81
2023/08/29 10:06:05;;;;;;;7.72;4.25;;;;;;;33.60;33.59;99437.44;5046520;28;20122;-81
2023/08/29 10:08:46;;;;;;;9.00;4.07;;;;;;;33.74;32.77;99417.63;5032665;28;20112;-82
2023/08/29 10:11:12;;;;;;;9.07;3.75;;;;;;;33.49;33.22;99430.22;5031644;28;20092;-80
2023/08/29 10:13:39;;;;;;;6.28;3.58;;;;;;;33.22;32.87;99344.84;5047125;28;20040;-82
2023/08/29 10:16:05;;;;;;;7.97;4.63;;;;;;;33.52;32.18;99372.94;5032600;28;20432;-84
2023/08/29 10:18:33;;;;;;;7.50;4.22;;;;;;;33.85;32.11;99416.84;5049215;28;20029;-82
2023/08/29 10:21:00;;;;;;;6.20;3.75;;;;;;;34.11;31.80;99404.09;5049035;28;20033;-79
2023/08/29 10:23:26;;;;;;;8.77;4.45;;;;;;;34.23;31.34;99407.63;5032284;28;20029;-80
2023/08/29 10:25:52;;;;;;;12.38;4.00;;;;;;;33.58;31.85;99313.59;5048656;28;20041;-83
2023/08/29 10:28:19;;;;;;;5.57;3.30;;;;;;;34.16;32.18;99407.25;5091830;28;20136;-74
2023/08/29 10:30:49;;;;;;;6.22;3.50;;;;;;;34.31;31.06;99394.47;5089391;28;20032;-80
2023/08/29 10:33:15;;;;;;;8.98;4.05;;;;;;;34.49;30.71;99394.88;5071246;28;20024;-80
2023/08/29 10:35:41;;;;;;;5.18;3.50;;;;;;;34.30;30.84;99373.16;5071839;28;20038;-87
2023/08/29 10:38:16;;;;;;;6.35;3.85;;;;;;;34.20;31.06;99391.78;5049599;28;20043;-83
2023/08/29 10:40:43;;;;;;;4.85;3.47;;;;;;;34.40;30.91;99387.56;5032258;28;20068;-77
2023/08/29 10:43:18;;;;;;;6.25;3.80;;;;;;;34.56;29.67;99381.81;5031968;28;20049;-80
2023/08/29 10:45:50;;;;;;;9.35;3.92;;;;;;;34.74;30.00;99387.50;5048879;28;20658;-81
2023/08/29 10:48:20;;;;;;;5.45;3.63;;;;;;;34.42;30.17;99328.47;5022583;28;20131;-81
2023/08/29 10:51:10;;;;;;;11.10;4.07;;;;;;;34.87;28.93;99391.88;5036797;28;20036;-78
2023/08/29 10:53:48;;;;;;;7.70;3.65;;;;;;;34.75;28.81;99374.94;5047960;28;20472;-78
2023/08/29 10:56:17;;;;;;;5.65;3.78;;;;;;;34.90;28.75;99387.13;5048317;28;20037;-81
2023/08/29 10:58:45;;;;;;;6.60;3.75;;;;;;;34.98;28.56;99387.34;5048181;28;20110;-77
2023/08/29 11:01:26;;;;;;;7.50;3.45;;;;;;;35.11;27.41;99371.06;5030276;28;20042;-84
2023/08/29 11:03:53;;;;;;;8.82;3.50;;;;;;;34.93;26.51;99360.06;5011559;28;20056;-80
2023/08/29 11:06:22;;;;;;;6.75;3.00;;;;;;;35.07;27.37;99348.19;5012025;28;20091;-77
2023/08/29 11:08:47;;;;;;;5.97;3.35;;;;;;;35.13;26.67;99360.22;5024158;28;20481;-80
2023/08/29 11:11:13;;;;;;;6.97;3.40;;;;;;;35.16;27.78;99349.25;5073924;28;20111;-80
2023/08/29 11:13:58;;;;;;;5.82;3.28;;;;;;;35.14;26.75;99352.06;5090310;28;20055;-83
2023/08/29 11:16:24;;;;;;;4.80;3.47;;;;;;;34.36;27.94;99254.81;5089232;28;20078;-78
2023/08/29 11:19:13;;;;;;;7.80;3.38;;;;;;;35.23;27.47;99346.88;5072500;28;20032;-85
2023/08/29 11:21:45;;;;;;;6.30;3.17;;;;;;;35.10;26.45;99330.97;5089520;28;20028;-81
2023/08/29 11:24:11;;;;;;;6.95;3.38;;;;;;;34.72;27.02;99294.78;5089958;28;20028;-83
2023/08/29 11:26:43;;;;;;;5.65;3.30;;;;;;;35.02;27.36;99330.75;5090446;28;20039;-82